Time;durP1;ratioP1;P1;durP2;ratioP2;P2;SDS_P1;SDS_P2;PMS_P1;PMS_P2;Temp;Humidity;BMP_temperature;BMP_pressure;BME280_temperature;BME280_humidity;BME280_pressure;Samples;Min_cycle;Max_cycle;Signal;HPM_P1;HPM_P2
2023/04/27 00:04:36;;;;;;;1999.90;999.90;;;8.00;99.90;;;;;;6691394;88;20195;-77
2023/04/27 00:14:36;;;;;;;1999.90;999.90;;;7.90;99.90;;;;;;6693825;88;20249;-76
2023/04/27 00:24:37;;;;;;;1999.90;999.90;;;7.80;99.90;;;;;;6689241;88;20301;-76
2023/04/27 00:34:37;;;;;;;1999.90;999.90;;;7.60;99.90;;;;;;6692586;88;20550;-76
2023/04/27 00:44:38;;;;;;;1999.90;999.90;;;7.40;99.90;;;;;;6697805;88;20266;-76
2023/04/27 00:54:39;;;;;;;1999.90;999.90;;;7.40;99.90;;;;;;6695170;88;20237;-77
2023/04/27 01:04:40;;;;;;;1999.90;999.90;;;7.40;99.90;;;;;;6694447;88;20220;-78
2023/04/27 01:14:40;;;;;;;1999.90;999.90;;;7.40;99.90;;;;;;6700371;88;20382;-78
2023/04/27 01:24:41;;;;;;;1999.90;999.90;;;7.50;99.90;;;;;;6700964;88;20302;-75
2023/04/27 01:34:41;;;;;;;1999.90;999.90;;;7.50;99.90;;;;;;6699573;88;20190;-77
2023/04/27 01:44:42;;;;;;;1999.90;999.90;;;7.40;99.90;;;;;;6697336;88;20199;-77
2023/04/27 01:54:42;;;;;;;1999.90;999.90;;;7.40;99.90;;;;;;6695082;88;20304;-78
2023/04/27 02:04:43;;;;;;;1999.90;999.90;;;7.30;99.90;;;;;;6701005;88;20213;-77
2023/04/27 02:14:44;;;;;;;1999.90;999.90;;;7.20;99.90;;;;;;6702381;88;20246;-76
2023/04/27 02:24:45;;;;;;;1999.90;999.90;;;7.20;99.90;;;;;;6693977;88;20195;-76
2023/04/27 02:34:45;;;;;;;1999.90;999.90;;;7.10;99.90;;;;;;6689430;88;20675;-77
2023/04/27 02:44:46;;;;;;;1999.90;999.90;;;7.10;99.90;;;;;;6689505;88;20344;-78
2023/04/27 02:54:47;;;;;;;1999.90;999.90;;;7.10;99.90;;;;;;6691251;88;20228;-77
2023/04/27 03:04:52;;;;;;;1999.90;999.90;;;7.10;99.90;;;;;;6689364;88;20218;-77
2023/04/27 03:14:53;;;;;;;1999.90;999.90;;;7.10;99.90;;;;;;6692902;88;20251;-76
2023/04/27 03:24:53;;;;;;;1999.90;999.90;;;7.10;99.90;;;;;;6692260;88;20245;-77
2023/04/27 03:34:55;;;;;;;1999.90;999.90;;;7.10;99.90;;;;;;6689838;88;20194;-77
2023/04/27 03:44:55;;;;;;;1999.90;999.90;;;7.00;99.90;;;;;;6708350;88;20199;-77
2023/04/27 03:54:56;;;;;;;1999.90;999.90;;;7.00;99.90;;;;;;6697477;88;20603;-78
2023/04/27 04:04:56;;;;;;;1999.90;999.90;;;7.00;99.90;;;;;;6690104;88;20226;-79
2023/04/27 04:14:57;;;;;;;1999.90;999.90;;;7.00;99.90;;;;;;6696754;88;20697;-77
2023/04/27 04:24:57;;;;;;;1999.90;999.90;;;7.10;99.90;;;;;;6689570;88;20202;-77
2023/04/27 04:35:00;;;;;;;1999.90;999.90;;;7.10;99.90;;;;;;6694542;88;20659;-76
2023/04/27 04:45:01;;;;;;;1999.90;999.90;;;7.10;99.90;;;;;;6697006;88;20200;-77
2023/04/27 04:55:02;;;;;;;1999.90;999.90;;;7.10;99.90;;;;;;6693034;88;20194;-77
2023/04/27 05:05:03;;;;;;;1999.90;999.90;;;7.10;99.90;;;;;;6697881;88;20687;-76
2023/04/27 05:15:04;;;;;;;1999.90;999.90;;;7.20;99.90;;;;;;6694167;88;20506;-76
2023/04/27 05:25:05;;;;;;;1999.90;999.90;;;7.10;99.90;;;;;;6704123;88;20215;-76
2023/04/27 05:35:06;;;;;;;1999.90;999.90;;;7.20;99.90;;;;;;6706777;88;20199;-77
2023/04/27 05:45:07;;;;;;;1999.90;999.90;;;7.40;99.90;;;;;;6704337;88;20194;-77
2023/04/27 05:55:08;;;;;;;1999.90;999.90;;;7.60;99.90;;;;;;6692186;88;20561;-76
2023/04/27 06:05:08;;;;;;;1999.90;999.90;;;8.00;99.90;;;;;;6692727;88;20269;-78
2023/04/27 06:15:09;;;;;;;1999.90;999.90;;;8.30;99.90;;;;;;6694533;88;20364;-75
2023/04/27 06:25:10;;;;;;;1999.90;999.90;;;8.60;99.90;;;;;;6687719;88;20711;-77
2023/04/27 06:35:11;;;;;;;1999.90;999.90;;;9.30;99.90;;;;;;6690720;88;20338;-76
2023/04/27 06:45:11;;;;;;;1999.90;999.90;;;9.60;99.90;;;;;;6697698;88;20816;-76
2023/04/27 06:55:12;;;;;;;1999.90;999.90;;;9.70;99.90;;;;;;6693857;88;20242;-76
2023/04/27 07:05:12;;;;;;;1999.90;999.90;;;10.00;99.90;;;;;;6691321;88;20323;-75
2023/04/27 07:15:13;;;;;;;1999.90;999.90;;;10.50;99.90;;;;;;6691463;88;20194;-76
2023/04/27 07:25:15;;;;;;;1999.90;999.90;;;11.00;99.90;;;;;;6704589;88;20259;-76
2023/04/27 07:35:15;;;;;;;1999.90;999.90;;;10.90;99.90;;;;;;6687814;88;20231;-75
2023/04/27 07:45:19;;;;;;;1999.90;999.90;;;10.90;99.90;;;;;;6692161;88;20308;-76
2023/04/27 07:55:21;;;;;;;1999.90;999.90;;;11.30;99.90;;;;;;6700877;88;20264;-77
2023/04/27 08:05:21;;;;;;;1999.90;999.90;;;12.00;99.90;;;;;;6688454;88;20235;-76
2023/04/27 08:15:22;;;;;;;1999.90;999.90;;;12.50;99.20;;;;;;6693046;88;20319;-75
2023/04/27 08:25:22;;;;;;;1999.90;999.90;;;12.80;98.30;;;;;;6693332;88;20260;-76
2023/04/27 08:35:23;;;;;;;1999.90;999.90;;;12.90;97.30;;;;;;6689238;88;20194;-75
2023/04/27 08:45:25;;;;;;;1999.90;999.90;;;13.40;97.10;;;;;;6691051;88;20304;-76
2023/04/27 08:55:25;;;;;;;1999.90;999.90;;;13.90;95.90;;;;;;6699257;88;20225;-77
2023/04/27 09:05:26;;;;;;;1999.90;999.90;;;15.10;94.40;;;;;;6698067;88;20700;-75
2023/04/27 09:15:27;;;;;;;1999.90;999.90;;;15.90;93.20;;;;;;6691808;88;20677;-75
2023/04/27 09:25:48;;;;;;;1999.90;999.90;;;16.30;92.30;;;;;;6710766;77;20199;-79
2023/04/27 09:35:49;;;;;;;1999.90;999.90;;;16.30;90.90;;;;;;6683657;89;20221;-80
2023/04/27 09:45:50;;;;;;;1999.90;999.90;;;17.10;90.80;;;;;;6682047;89;20205;-81
2023/04/27 09:56:24;;;;;;;1999.90;999.90;;;17.10;91.00;;;;;;6693688;89;20194;-82
2023/04/27 10:06:49;;;;;;;1999.90;999.90;;;17.80;90.20;;;;;;6664617;89;20189;-80
2023/04/27 10:16:55;;;;;;;1999.90;999.90;;;18.40;89.40;;;;;;6668706;89;20202;-80
2023/04/27 10:27:02;;;;;;;1999.90;999.90;;;18.50;86.90;;;;;;6681794;88;20239;-81
2023/04/27 10:37:10;;;;;;;1999.90;999.90;;;18.70;88.30;;;;;;6679978;89;20252;-81
2023/04/27 10:47:14;;;;;;;1999.90;999.90;;;18.90;86.30;;;;;;6686455;89;20159;-82
2023/04/27 10:57:15;;;;;;;1999.90;999.90;;;18.60;87.60;;;;;;6688064;89;20353;-80
2023/04/27 11:07:24;;;;;;;1999.90;999.90;;;18.90;86.70;;;;;;6686998;89;20270;-80
2023/04/27 11:17:28;;;;;;;1999.90;999.90;;;19.40;87.10;;;;;;6683309;89;20217;-80
2023/04/27 11:27:39;;;;;;;1999.90;999.90;;;19.90;84.80;;;;;;6701072;88;20195;-81
2023/04/27 11:37:40;;;;;;;1999.90;999.90;;;20.40;83.70;;;;;;6666052;89;20184;-81
2023/04/27 11:47:46;;;;;;;1999.90;999.90;;;20.80;83.70;;;;;;6688749;89;20212;-79
2023/04/27 11:57:46;;;;;;;1999.90;999.90;;;20.90;82.70;;;;;;6677490;89;20266;-81
2023/04/27 12:07:47;;;;;;;1999.90;999.90;;;21.10;82.30;;;;;;6663103;89;20225;-80
2023/04/27 12:17:48;;;;;;;1999.90;999.90;;;21.20;82.00;;;;;;6664532;89;20693;-80
2023/04/27 12:27:49;;;;;;;1999.90;999.90;;;20.80;81.20;;;;;;6664409;89;20191;-81
2023/04/27 12:37:49;;;;;;;1999.90;999.90;;;21.00;79.70;;;;;;6665215;89;20726;-80
2023/04/27 12:47:50;;;;;;;1999.90;999.90;;;21.10;79.70;;;;;;6663957;89;20699;-79
2023/04/27 12:57:51;;;;;;;1999.90;999.90;;;21.70;80.00;;;;;;6661863;89;20195;-80
2023/04/27 13:07:51;;;;;;;1999.90;999.90;;;20.90;79.70;;;;;;6691185;88;20205;-80
2023/04/27 13:17:53;;;;;;;1999.90;999.90;;;22.00;78.40;;;;;;6701293;88;20555;-80
2023/04/27 13:27:56;;;;;;;1999.90;999.90;;;21.80;79.70;;;;;;6703349;88;20215;-80
2023/04/27 13:37:57;;;;;;;1999.90;999.90;;;21.50;78.70;;;;;;6696907;88;20782;-81
2023/04/27 13:47:57;;;;;;;1999.90;999.90;;;21.70;79.20;;;;;;6693946;88;20208;-81
2023/04/27 13:57:58;;;;;;;1999.90;999.90;;;22.60;77.90;;;;;;6698196;88;20190;-81
2023/04/27 14:07:59;;;;;;;1999.90;999.90;;;22.10;76.50;;;;;;6690250;88;20183;-80
2023/04/27 14:17:59;;;;;;;1999.90;999.90;;;22.60;77.20;;;;;;6682826;89;20192;-81
2023/04/27 14:28:01;;;;;;;1999.90;999.90;;;22.20;77.10;;;;;;6682629;89;20253;-80
2023/04/27 14:38:02;;;;;;;1999.90;999.90;;;22.20;76.10;;;;;;6682568;89;20191;-81
2023/04/27 14:48:03;;;;;;;1999.90;999.90;;;22.10;76.20;;;;;;6682071;89;20199;-80
2023/04/27 14:58:03;;;;;;;1999.90;999.90;;;22.00;75.90;;;;;;6666314;89;20294;-80
2023/04/27 15:08:04;;;;;;;1999.90;999.90;;;21.60;76.10;;;;;;6666085;89;20200;-80
2023/04/27 15:18:05;;;;;;;1999.90;999.90;;;21.40;76.20;;;;;;6666701;89;20201;-81
2023/04/27 15:28:05;;;;;;;1999.90;999.90;;;21.40;76.70;;;;;;6677382;88;20227;-80
2023/04/27 15:38:08;;;;;;;1999.90;999.90;;;21.40;75.70;;;;;;6685024;88;20212;-81
2023/04/27 15:48:10;;;;;;;1999.90;999.90;;;20.90;75.70;;;;;;6670854;88;20211;-79
2023/04/27 15:58:11;;;;;;;1999.90;999.90;;;20.50;76.20;;;;;;6674119;89;20213;-81
2023/04/27 16:08:11;;;;;;;1999.90;999.90;;;20.20;76.60;;;;;;6674962;89;20250;-80
2023/04/27 16:18:12;;;;;;;1999.90;999.90;;;19.60;77.80;;;;;;6676105;89;20301;-82
2023/04/27 16:28:12;;;;;;;1999.90;999.90;;;19.40;78.00;;;;;;6683822;89;20217;-80
2023/04/27 16:38:13;;;;;;;1999.90;999.90;;;19.10;78.90;;;;;;6675168;89;20339;-81
2023/04/27 16:48:14;;;;;;;1999.90;999.90;;;18.80;79.50;;;;;;6689101;88;20207;-80
2023/04/27 16:58:14;;;;;;;1999.90;999.90;;;18.30;80.20;;;;;;6677288;88;20715;-79
2023/04/27 17:08:15;;;;;;;1999.90;999.90;;;18.10;79.80;;;;;;6676101;89;20208;-79
2023/04/27 17:18:15;;;;;;;1999.90;999.90;;;18.00;81.80;;;;;;6675384;89;20184;-80
2023/04/27 17:28:16;;;;;;;1999.90;999.90;;;17.80;82.20;;;;;;6676306;88;20286;-81
2023/04/27 17:38:16;;;;;;;1999.90;999.90;;;17.50;82.10;;;;;;6674535;88;20192;-79
2023/04/27 17:48:17;;;;;;;1999.90;999.90;;;17.30;83.20;;;;;;6677017;88;20234;-79
2023/04/27 17:58:18;;;;;;;1999.90;999.90;;;16.90;83.20;;;;;;6678825;89;20227;-81
2023/04/27 18:08:18;;;;;;;1999.90;999.90;;;16.50;84.70;;;;;;6679057;89;20277;-81
2023/04/27 18:18:20;;;;;;;1999.90;999.90;;;16.30;85.30;;;;;;6679005;89;20205;-82
2023/04/27 18:28:21;;;;;;;1999.90;999.90;;;16.00;85.80;;;;;;6688518;89;20151;-82
2023/04/27 18:38:21;;;;;;;1999.90;999.90;;;15.70;87.70;;;;;;6698475;89;20155;-82
2023/04/27 18:48:22;;;;;;;1999.90;999.90;;;15.50;87.50;;;;;;6693993;89;20210;-83
2023/04/27 18:58:22;;;;;;;1999.90;999.90;;;15.30;88.60;;;;;;6698951;89;20310;-82
2023/04/27 19:08:23;;;;;;;1999.90;999.90;;;15.10;88.90;;;;;;6700504;89;20211;-82
2023/04/27 19:18:25;;;;;;;1999.90;999.90;;;15.10;89.30;;;;;;6700597;89;20243;-84
2023/04/27 19:28:26;;;;;;;1999.90;999.90;;;15.00;89.40;;;;;;6700986;89;20211;-79
2023/04/27 19:38:26;;;;;;;1999.90;999.90;;;14.80;90.40;;;;;;6701265;89;20180;-79
2023/04/27 19:48:27;;;;;;;1999.90;999.90;;;14.80;90.20;;;;;;6701100;89;20187;-79
2023/04/27 19:58:27;;;;;;;1999.90;999.90;;;14.60;90.70;;;;;;6700842;89;20206;-79
2023/04/27 20:08:28;;;;;;;1999.90;999.90;;;14.60;90.60;;;;;;6700420;89;20213;-79
2023/04/27 20:18:30;;;;;;;1999.90;999.90;;;14.40;91.10;;;;;;6700494;89;20185;-80
2023/04/27 20:28:31;;;;;;;1999.90;999.90;;;14.50;91.30;;;;;;6700082;89;20235;-80
2023/04/27 20:38:31;;;;;;;1999.90;999.90;;;14.30;92.40;;;;;;6716915;88;20799;-79
2023/04/27 20:48:33;;;;;;;1999.90;999.90;;;14.20;92.30;;;;;;6715704;88;20167;-80
2023/04/27 20:58:33;;;;;;;1999.90;999.90;;;14.10;92.70;;;;;;6695193;89;20204;-81
2023/04/27 21:08:34;;;;;;;1999.90;999.90;;;13.90;93.40;;;;;;6694555;89;20208;-80
2023/04/27 21:18:35;;;;;;;1999.90;999.90;;;13.90;92.90;;;;;;6700288;77;20973;-76
2023/04/27 21:28:35;;;;;;;1999.90;999.90;;;13.70;93.40;;;;;;6700085;88;20310;-76
2023/04/27 21:38:36;;;;;;;1999.90;999.90;;;13.70;95.10;;;;;;6695655;88;20195;-75
2023/04/27 21:48:37;;;;;;;1999.90;999.90;;;13.50;95.40;;;;;;6694293;88;20202;-76
2023/04/27 21:58:37;;;;;;;1999.90;999.90;;;13.40;96.30;;;;;;6701044;88;20222;-76
2023/04/27 22:08:38;;;;;;;1999.90;999.90;;;13.40;95.70;;;;;;6694200;88;20197;-77
2023/04/27 22:18:38;;;;;;;1999.90;999.90;;;13.40;96.40;;;;;;6704139;88;20194;-77
2023/04/27 22:28:39;;;;;;;1999.90;999.90;;;13.40;96.40;;;;;;6701194;88;20215;-76
2023/04/27 22:38:40;;;;;;;1999.90;999.90;;;13.40;96.50;;;;;;6703676;88;20269;-76
2023/04/27 22:48:42;;;;;;;1999.90;999.90;;;13.50;96.50;;;;;;6698375;88;20286;-77
2023/04/27 22:58:43;;;;;;;1999.90;999.90;;;13.50;96.90;;;;;;6699129;88;20194;-76
2023/04/27 23:08:45;;;;;;;1999.90;999.90;;;13.40;97.30;;;;;;6700051;88;20211;-77
2023/04/27 23:18:46;;;;;;;1999.90;999.90;;;13.40;97.60;;;;;;6706144;88;20280;-76
2023/04/27 23:28:47;;;;;;;1999.90;999.90;;;13.50;97.30;;;;;;6705731;88;20182;-77
2023/04/27 23:38:47;;;;;;;1999.90;999.90;;;13.60;97.10;;;;;;6699217;88;20226;-75
2023/04/27 23:48:48;;;;;;;1999.90;999.90;;;13.60;98.20;;;;;;6699143;88;20651;-76
2023/04/27 23:58:48;;;;;;;1999.90;999.90;;;13.40;99.40;;;;;;6696324;88;20249;-75
